DLH876 EDDH-ENBR
Flight info
| Callsign | DLH876 |
|---|---|
| Flight time | 1h 18m |
| Altitude | 38000 |
| Route | ELSOB3G/33 ELSOB Y348 OMWEG DCT BADOS DCT ATTUS DCT BADAB |
| Aircraft | A321/M-DE2E3FGIJ1LORVWXYZ/HB2 |
Departure
| Time | 2026-04-25 20:26 |
|---|---|
| Airport | Hamburg Helmut Schmidt Airport (EDDH) |
Arrival
| Time | 2026-04-25 21:44 |
|---|---|
| Airport | Bergen Airport, Flesland (ENBR) |
| Time | Latitude | Longitude | Altitude | Speed | Heading |
|---|---|---|---|---|---|
| 2026-04-25 19:45 | 53.63372 | 10.00338 | 49 ft | 0 kts | 85° |
| 2026-04-25 20:11 | 53.63370 | 10.00302 | 43 ft | 4 kts | 85° |
| 2026-04-25 20:11 | 53.63369 | 10.00257 | 47 ft | 4 kts | 99° |
| 2026-04-25 20:12 | 53.63377 | 10.00227 | 46 ft | 3 kts | 172° |
| 2026-04-25 20:12 | 53.63379 | 10.00226 | 47 ft | 0 kts | 176° |
| 2026-04-25 20:15 | 53.63359 | 10.00214 | 48 ft | 8 kts | 218° |
| 2026-04-25 20:15 | 53.63270 | 10.00172 | 48 ft | 20 kts | 174° |
| 2026-04-25 20:16 | 53.63142 | 10.00189 | 48 ft | 18 kts | 175° |
| 2026-04-25 20:16 | 53.63048 | 10.00161 | 48 ft | 14 kts | 213° |
| 2026-04-25 20:16 | 53.62964 | 10.00070 | 48 ft | 13 kts | 212° |
| 2026-04-25 20:16 | 53.62915 | 9.99976 | 49 ft | 0 kts | 242° |
| 2026-04-25 20:17 | 53.62914 | 9.99974 | 48 ft | 0 kts | 242° |
| 2026-04-25 20:18 | 53.62914 | 9.99973 | 48 ft | 1 kts | 242° |
| 2026-04-25 20:18 | 53.62906 | 9.99946 | 46 ft | 4 kts | 243° |
| 2026-04-25 20:18 | 53.62897 | 9.99917 | 48 ft | 0 kts | 243° |
| 2026-04-25 20:24 | 53.62895 | 9.99909 | 46 ft | 3 kts | 243° |
| 2026-04-25 20:25 | 53.62879 | 9.99856 | 47 ft | 9 kts | 243° |
| 2026-04-25 20:25 | 53.62888 | 9.99729 | 45 ft | 12 kts | 328° |
| 2026-04-25 20:25 | 53.62900 | 9.99718 | 45 ft | 0 kts | 332° |
| 2026-04-25 20:26 | 53.63057 | 9.99580 | 46 ft | 62 kts | 332° |
| 2026-04-25 20:26 | 53.63656 | 9.99057 | 48 ft | 132 kts | 333° |
| 2026-04-25 20:26 | 53.64620 | 9.98251 | 246 ft | 169 kts | 332° |
| 2026-04-25 20:26 | 53.65741 | 9.97296 | 844 ft | 182 kts | 332° |
| 2026-04-25 20:27 | 53.66904 | 9.96209 | 1265 ft | 214 kts | 329° |
| 2026-04-25 20:27 | 53.68322 | 9.94827 | 1343 ft | 239 kts | 329° |
| 2026-04-25 20:27 | 53.69678 | 9.93457 | 1472 ft | 215 kts | 317° |
| 2026-04-25 20:27 | 53.70242 | 9.91324 | 1535 ft | 199 kts | 273° |
| 2026-04-25 20:28 | 53.70080 | 9.89123 | 1654 ft | 178 kts | 269° |
| 2026-04-25 20:28 | 53.69925 | 9.87140 | 1775 ft | 177 kts | 269° |
| 2026-04-25 20:28 | 53.69760 | 9.85078 | 2635 ft | 175 kts | 270° |
| 2026-04-25 20:28 | 53.69587 | 9.82995 | 3344 ft | 188 kts | 271° |
| 2026-04-25 20:29 | 53.69416 | 9.80679 | 3843 ft | 210 kts | 271° |
| 2026-04-25 20:29 | 53.69238 | 9.78092 | 4314 ft | 235 kts | 268° |
| 2026-04-25 20:29 | 53.68841 | 9.75276 | 4933 ft | 253 kts | 261° |
| 2026-04-25 20:29 | 53.68284 | 9.72420 | 5793 ft | 258 kts | 258° |
| 2026-04-25 20:30 | 53.67885 | 9.70529 | 6412 ft | 259 kts | 258° |
| 2026-04-25 20:30 | 53.67067 | 9.66705 | 7569 ft | 260 kts | 259° |
| 2026-04-25 20:30 | 53.66607 | 9.63837 | 8377 ft | 252 kts | 274° |
| 2026-04-25 20:30 | 53.66836 | 9.61031 | 9188 ft | 240 kts | 296° |
| 2026-04-25 20:31 | 53.67732 | 9.58709 | 10018 ft | 237 kts | 317° |
| 2026-04-25 20:31 | 53.69116 | 9.57209 | 10741 ft | 243 kts | 335° |
| 2026-04-25 20:31 | 53.70854 | 9.56573 | 10956 ft | 269 kts | 347° |
| 2026-04-25 20:31 | 53.72785 | 9.56123 | 11169 ft | 289 kts | 347° |
| 2026-04-25 20:32 | 53.74810 | 9.55672 | 11720 ft | 296 kts | 348° |
| 2026-04-25 20:32 | 53.76859 | 9.55222 | 12421 ft | 298 kts | 348° |
| 2026-04-25 20:32 | 53.78922 | 9.54760 | 13156 ft | 299 kts | 348° |
| 2026-04-25 20:32 | 53.80994 | 9.54290 | 13889 ft | 301 kts | 348° |
| 2026-04-25 20:33 | 53.83074 | 9.53812 | 14521 ft | 303 kts | 348° |
| 2026-04-25 20:33 | 53.85156 | 9.53327 | 15127 ft | 306 kts | 348° |
| 2026-04-25 20:33 | 53.87276 | 9.52831 | 15775 ft | 308 kts | 347° |
| 2026-04-25 20:33 | 53.88682 | 9.52501 | 16225 ft | 308 kts | 347° |
| 2026-04-25 20:34 | 53.91540 | 9.51827 | 17054 ft | 312 kts | 347° |
| 2026-04-25 20:34 | 53.93698 | 9.51316 | 17627 ft | 315 kts | 347° |
| 2026-04-25 20:34 | 53.95947 | 9.50783 | 18229 ft | 318 kts | 347° |
| 2026-04-25 20:34 | 53.98054 | 9.50283 | 18715 ft | 321 kts | 347° |
| 2026-04-25 20:35 | 54.00202 | 9.49522 | 19120 ft | 322 kts | 339° |
| 2026-04-25 20:35 | 54.02258 | 9.47999 | 19561 ft | 323 kts | 329° |
| 2026-04-25 20:35 | 54.04211 | 9.46079 | 20033 ft | 326 kts | 329° |
| 2026-04-25 20:35 | 54.06180 | 9.44136 | 20507 ft | 329 kts | 328° |
| 2026-04-25 20:36 | 54.08167 | 9.42169 | 20970 ft | 332 kts | 328° |
| 2026-04-25 20:36 | 54.10168 | 9.40190 | 21451 ft | 334 kts | 328° |
| 2026-04-25 20:36 | 54.12192 | 9.38194 | 21914 ft | 337 kts | 328° |
| 2026-04-25 20:36 | 54.14226 | 9.36189 | 22426 ft | 339 kts | 329° |
| 2026-04-25 20:37 | 54.16271 | 9.34171 | 22924 ft | 341 kts | 329° |
| 2026-04-25 20:37 | 54.18331 | 9.32135 | 23381 ft | 343 kts | 329° |
| 2026-04-25 20:37 | 54.20404 | 9.30081 | 23809 ft | 346 kts | 329° |
| 2026-04-25 20:37 | 54.22490 | 9.28009 | 24199 ft | 348 kts | 329° |
| 2026-04-25 20:38 | 54.24593 | 9.25921 | 24572 ft | 350 kts | 329° |
| 2026-04-25 20:38 | 54.26706 | 9.23820 | 24956 ft | 353 kts | 329° |
| 2026-04-25 20:38 | 54.28834 | 9.21700 | 25334 ft | 355 kts | 329° |
| 2026-04-25 20:38 | 54.30976 | 9.19560 | 25708 ft | 357 kts | 329° |
| 2026-04-25 20:39 | 54.33125 | 9.17411 | 26083 ft | 359 kts | 328° |
| 2026-04-25 20:39 | 54.35288 | 9.15246 | 26438 ft | 361 kts | 329° |
| 2026-04-25 20:39 | 54.37518 | 9.13207 | 26791 ft | 365 kts | 335° |
| 2026-04-25 20:39 | 54.39087 | 9.12153 | 27030 ft | 367 kts | 336° |
| 2026-04-25 20:40 | 54.42291 | 9.10052 | 27470 ft | 370 kts | 336° |
| 2026-04-25 20:40 | 54.44705 | 9.08459 | 27816 ft | 373 kts | 336° |
| 2026-04-25 20:40 | 54.47138 | 9.06853 | 28163 ft | 375 kts | 336° |
| 2026-04-25 20:40 | 54.49583 | 9.05239 | 28509 ft | 377 kts | 337° |
| 2026-04-25 20:41 | 54.52040 | 9.03619 | 28860 ft | 379 kts | 337° |
| 2026-04-25 20:41 | 54.54479 | 9.02007 | 29200 ft | 382 kts | 337° |
| 2026-04-25 20:41 | 54.56998 | 9.00342 | 29537 ft | 384 kts | 337° |
| 2026-04-25 20:41 | 54.59497 | 8.98685 | 29848 ft | 386 kts | 336° |
| 2026-04-25 20:42 | 54.62006 | 8.97020 | 30149 ft | 388 kts | 337° |
| 2026-04-25 20:42 | 54.64532 | 8.95341 | 30401 ft | 390 kts | 337° |
| 2026-04-25 20:42 | 54.67036 | 8.93673 | 30649 ft | 391 kts | 337° |
| 2026-04-25 20:42 | 54.69576 | 8.91977 | 30939 ft | 392 kts | 337° |
| 2026-04-25 20:43 | 54.72111 | 8.90284 | 31291 ft | 390 kts | 337° |
| 2026-04-25 20:43 | 54.74637 | 8.88597 | 31645 ft | 388 kts | 337° |
| 2026-04-25 20:43 | 54.77159 | 8.86907 | 31975 ft | 387 kts | 338° |
| 2026-04-25 20:43 | 54.79671 | 8.85222 | 32308 ft | 386 kts | 338° |
| 2026-04-25 20:44 | 54.82173 | 8.83542 | 32627 ft | 385 kts | 338° |
| 2026-04-25 20:44 | 54.84692 | 8.81851 | 32952 ft | 384 kts | 338° |
| 2026-04-25 20:44 | 54.87154 | 8.80193 | 33273 ft | 383 kts | 338° |
| 2026-04-25 20:44 | 54.89640 | 8.78515 | 33600 ft | 383 kts | 338° |
| 2026-04-25 20:45 | 54.92125 | 8.76886 | 33913 ft | 382 kts | 339° |
| 2026-04-25 20:45 | 54.94629 | 8.75371 | 34215 ft | 381 kts | 340° |
| 2026-04-25 20:45 | 54.97153 | 8.73914 | 34463 ft | 381 kts | 341° |
| 2026-04-25 20:45 | 54.99679 | 8.72481 | 34666 ft | 383 kts | 341° |
| 2026-04-25 20:46 | 55.02209 | 8.71040 | 34899 ft | 383 kts | 341° |
| 2026-04-25 20:46 | 55.04738 | 8.69579 | 35157 ft | 382 kts | 341° |
| 2026-04-25 20:46 | 55.07257 | 8.68104 | 35415 ft | 382 kts | 340° |
| 2026-04-25 20:46 | 55.09771 | 8.66617 | 35681 ft | 381 kts | 340° |
| 2026-04-25 20:47 | 55.12274 | 8.65122 | 35945 ft | 380 kts | 340° |
| 2026-04-25 20:47 | 55.14774 | 8.63626 | 36214 ft | 380 kts | 340° |
| 2026-04-25 20:47 | 55.17275 | 8.62132 | 36473 ft | 379 kts | 340° |
| 2026-04-25 20:47 | 55.19770 | 8.60646 | 36727 ft | 378 kts | 340° |
| 2026-04-25 20:48 | 55.22263 | 8.59159 | 37010 ft | 378 kts | 340° |
| 2026-04-25 20:48 | 55.24747 | 8.57675 | 37304 ft | 375 kts | 340° |
| 2026-04-25 20:48 | 55.27213 | 8.56196 | 37575 ft | 374 kts | 340° |
| 2026-04-25 20:48 | 55.29671 | 8.54719 | 37798 ft | 373 kts | 340° |
| 2026-04-25 20:49 | 55.32120 | 8.53246 | 38031 ft | 372 kts | 340° |
| 2026-04-25 20:49 | 55.34570 | 8.51769 | 38114 ft | 372 kts | 340° |
| 2026-04-25 20:49 | 55.39471 | 8.48816 | 38115 ft | 372 kts | 340° |
| 2026-04-25 20:50 | 55.44367 | 8.45855 | 38113 ft | 372 kts | 340° |
| 2026-04-25 20:50 | 55.49284 | 8.42884 | 38139 ft | 377 kts | 340° |
| 2026-04-25 20:51 | 55.54344 | 8.39802 | 38136 ft | 384 kts | 340° |
| 2026-04-25 20:51 | 55.59368 | 8.36745 | 38139 ft | 388 kts | 340° |
| 2026-04-25 20:52 | 55.63628 | 8.34155 | 38137 ft | 390 kts | 340° |
| 2026-04-25 20:52 | 55.69597 | 8.30512 | 38144 ft | 391 kts | 340° |
| 2026-04-25 20:53 | 55.74738 | 8.27340 | 38147 ft | 391 kts | 340° |
| 2026-04-25 20:53 | 55.79887 | 8.24158 | 38154 ft | 392 kts | 340° |
| 2026-04-25 20:54 | 55.85046 | 8.20979 | 38158 ft | 393 kts | 340° |
| 2026-04-25 20:54 | 55.90207 | 8.17780 | 38163 ft | 393 kts | 340° |
| 2026-04-25 20:55 | 55.95371 | 8.14564 | 38173 ft | 393 kts | 340° |
| 2026-04-25 20:55 | 56.00532 | 8.11353 | 38172 ft | 393 kts | 340° |
| 2026-04-25 20:56 | 56.05698 | 8.08131 | 38179 ft | 391 kts | 340° |
| 2026-04-25 20:56 | 56.10800 | 8.04941 | 38155 ft | 388 kts | 340° |
| 2026-04-25 20:57 | 56.15903 | 8.01746 | 38157 ft | 389 kts | 340° |
| 2026-04-25 20:57 | 56.21018 | 7.98531 | 38119 ft | 390 kts | 340° |
| 2026-04-25 20:58 | 56.26161 | 7.95275 | 38128 ft | 393 kts | 340° |
| 2026-04-25 20:58 | 56.31324 | 7.91992 | 38137 ft | 394 kts | 340° |
| 2026-04-25 20:59 | 56.36508 | 7.88692 | 38166 ft | 395 kts | 340° |
| 2026-04-25 20:59 | 56.41695 | 7.85389 | 38170 ft | 395 kts | 340° |
| 2026-04-25 21:00 | 56.45131 | 7.83208 | 38176 ft | 395 kts | 340° |
| 2026-04-25 21:01 | 56.54629 | 7.77128 | 38180 ft | 395 kts | 340° |
| 2026-04-25 21:01 | 56.59811 | 7.73794 | 38177 ft | 395 kts | 340° |
| 2026-04-25 21:02 | 56.64952 | 7.70482 | 38145 ft | 389 kts | 340° |
| 2026-04-25 21:02 | 56.70048 | 7.67197 | 38154 ft | 389 kts | 340° |
| 2026-04-25 21:03 | 56.75155 | 7.63882 | 38160 ft | 390 kts | 339° |
| 2026-04-25 21:03 | 56.80270 | 7.60546 | 38111 ft | 391 kts | 340° |
| 2026-04-25 21:04 | 56.85407 | 7.57195 | 38128 ft | 393 kts | 340° |
| 2026-04-25 21:04 | 56.90575 | 7.53807 | 38174 ft | 395 kts | 339° |
| 2026-04-25 21:05 | 56.95759 | 7.50394 | 38180 ft | 396 kts | 339° |
| 2026-04-25 21:05 | 57.00943 | 7.46974 | 38182 ft | 396 kts | 339° |
| 2026-04-25 21:06 | 57.05253 | 7.44133 | 38178 ft | 396 kts | 339° |
| 2026-04-25 21:06 | 57.11281 | 7.40142 | 38179 ft | 396 kts | 339° |
| 2026-04-25 21:07 | 57.16464 | 7.36693 | 38188 ft | 396 kts | 339° |
| 2026-04-25 21:07 | 57.20783 | 7.33816 | 38175 ft | 392 kts | 339° |
| 2026-04-25 21:08 | 57.25913 | 7.30400 | 38173 ft | 392 kts | 339° |
| 2026-04-25 21:08 | 57.31019 | 7.26982 | 38180 ft | 393 kts | 339° |
| 2026-04-25 21:09 | 57.38736 | 7.21793 | 38181 ft | 394 kts | 339° |
| 2026-04-25 21:09 | 57.43890 | 7.18316 | 38143 ft | 394 kts | 339° |
| 2026-04-25 21:10 | 57.49054 | 7.14810 | 38183 ft | 396 kts | 339° |
| 2026-04-25 21:10 | 57.54227 | 7.11287 | 38186 ft | 396 kts | 339° |
| 2026-04-25 21:11 | 57.59408 | 7.07757 | 38188 ft | 396 kts | 339° |
| 2026-04-25 21:11 | 57.64578 | 7.04227 | 38081 ft | 394 kts | 339° |
| 2026-04-25 21:12 | 57.67138 | 7.02477 | 37545 ft | 389 kts | 339° |
| 2026-04-25 21:12 | 57.69666 | 7.00741 | 36858 ft | 387 kts | 338° |
| 2026-04-25 21:12 | 57.72200 | 6.98997 | 36314 ft | 384 kts | 338° |
| 2026-04-25 21:12 | 57.73853 | 6.97858 | 36231 ft | 383 kts | 338° |
| 2026-04-25 21:13 | 57.79707 | 6.93817 | 36165 ft | 387 kts | 338° |
| 2026-04-25 21:13 | 57.84773 | 6.90320 | 36166 ft | 388 kts | 338° |
| 2026-04-25 21:14 | 57.89835 | 6.86806 | 36172 ft | 388 kts | 338° |
| 2026-04-25 21:14 | 57.94895 | 6.83280 | 36173 ft | 388 kts | 338° |
| 2026-04-25 21:15 | 57.99956 | 6.79755 | 36175 ft | 388 kts | 338° |
| 2026-04-25 21:15 | 58.05011 | 6.76223 | 36172 ft | 386 kts | 338° |
| 2026-04-25 21:16 | 58.10078 | 6.72669 | 36170 ft | 390 kts | 338° |
| 2026-04-25 21:16 | 58.15179 | 6.69079 | 36172 ft | 391 kts | 338° |
| 2026-04-25 21:17 | 58.20281 | 6.65475 | 36180 ft | 392 kts | 338° |
| 2026-04-25 21:17 | 58.25386 | 6.61852 | 36175 ft | 392 kts | 338° |
| 2026-04-25 21:18 | 58.30468 | 6.58229 | 36183 ft | 392 kts | 338° |
| 2026-04-25 21:18 | 58.35553 | 6.54596 | 36194 ft | 389 kts | 338° |
| 2026-04-25 21:19 | 58.40616 | 6.50973 | 36176 ft | 389 kts | 338° |
| 2026-04-25 21:19 | 58.45686 | 6.47349 | 36187 ft | 389 kts | 338° |
| 2026-04-25 21:20 | 58.49896 | 6.44316 | 36182 ft | 389 kts | 338° |
| 2026-04-25 21:20 | 58.55817 | 6.40051 | 36181 ft | 389 kts | 338° |
| 2026-04-25 21:21 | 58.60885 | 6.36389 | 36182 ft | 389 kts | 338° |
| 2026-04-25 21:21 | 58.65919 | 6.32729 | 36186 ft | 389 kts | 338° |
| 2026-04-25 21:22 | 58.70987 | 6.29033 | 36173 ft | 390 kts | 338° |
| 2026-04-25 21:22 | 58.76101 | 6.25296 | 36194 ft | 396 kts | 338° |
| 2026-04-25 21:23 | 58.81262 | 6.21507 | 36191 ft | 397 kts | 337° |
| 2026-04-25 21:23 | 58.83829 | 6.19619 | 36089 ft | 392 kts | 338° |
| 2026-04-25 21:23 | 58.86391 | 6.17734 | 35167 ft | 397 kts | 338° |
| 2026-04-25 21:24 | 58.88988 | 6.15820 | 34186 ft | 402 kts | 337° |
| 2026-04-25 21:24 | 58.91610 | 6.13887 | 33278 ft | 404 kts | 337° |
| 2026-04-25 21:24 | 58.94234 | 6.11952 | 32456 ft | 402 kts | 338° |
| 2026-04-25 21:24 | 58.96823 | 6.10036 | 31952 ft | 394 kts | 338° |
| 2026-04-25 21:25 | 58.99362 | 6.08149 | 31491 ft | 386 kts | 338° |
| 2026-04-25 21:25 | 59.01851 | 6.06291 | 31025 ft | 380 kts | 338° |
| 2026-04-25 21:25 | 59.04262 | 6.04491 | 30577 ft | 373 kts | 338° |
| 2026-04-25 21:25 | 59.06711 | 6.02698 | 29979 ft | 370 kts | 340° |
| 2026-04-25 21:26 | 59.09161 | 6.01557 | 29448 ft | 365 kts | 346° |
| 2026-04-25 21:26 | 59.11636 | 6.00640 | 28927 ft | 359 kts | 346° |
| 2026-04-25 21:26 | 59.14072 | 5.99721 | 28410 ft | 353 kts | 346° |
| 2026-04-25 21:26 | 59.16465 | 5.98808 | 27913 ft | 347 kts | 346° |
| 2026-04-25 21:27 | 59.18819 | 5.97903 | 27450 ft | 342 kts | 346° |
| 2026-04-25 21:27 | 59.21135 | 5.97014 | 26944 ft | 337 kts | 346° |
| 2026-04-25 21:27 | 59.23418 | 5.96140 | 26469 ft | 331 kts | 346° |
| 2026-04-25 21:27 | 59.25660 | 5.95281 | 26019 ft | 326 kts | 346° |
| 2026-04-25 21:28 | 59.27879 | 5.94431 | 25575 ft | 322 kts | 346° |
| 2026-04-25 21:28 | 59.30059 | 5.93593 | 25148 ft | 317 kts | 346° |
| 2026-04-25 21:28 | 59.32209 | 5.92768 | 24735 ft | 312 kts | 346° |
| 2026-04-25 21:28 | 59.34330 | 5.91955 | 24323 ft | 308 kts | 346° |
| 2026-04-25 21:29 | 59.36416 | 5.91153 | 23915 ft | 303 kts | 346° |
| 2026-04-25 21:29 | 59.38474 | 5.90362 | 23477 ft | 299 kts | 346° |
| 2026-04-25 21:29 | 59.40496 | 5.89585 | 23067 ft | 292 kts | 346° |
| 2026-04-25 21:29 | 59.42480 | 5.88818 | 22676 ft | 290 kts | 346° |
| 2026-04-25 21:30 | 59.44485 | 5.88300 | 22274 ft | 291 kts | 351° |
| 2026-04-25 21:30 | 59.46471 | 5.87973 | 21879 ft | 289 kts | 351° |
| 2026-04-25 21:30 | 59.48468 | 5.87649 | 21488 ft | 287 kts | 351° |
| 2026-04-25 21:30 | 59.49806 | 5.87433 | 21200 ft | 285 kts | 351° |
| 2026-04-25 21:31 | 59.52412 | 5.87014 | 20655 ft | 282 kts | 352° |
| 2026-04-25 21:31 | 59.54365 | 5.86692 | 20225 ft | 280 kts | 351° |
| 2026-04-25 21:31 | 59.56224 | 5.85798 | 19510 ft | 271 kts | 335° |
| 2026-04-25 21:31 | 59.57932 | 5.84063 | 18814 ft | 286 kts | 333° |
| 2026-04-25 21:32 | 59.59740 | 5.82192 | 18029 ft | 303 kts | 333° |
| 2026-04-25 21:32 | 59.61628 | 5.80230 | 17158 ft | 308 kts | 333° |
| 2026-04-25 21:32 | 59.63524 | 5.78255 | 16311 ft | 308 kts | 333° |
| 2026-04-25 21:32 | 59.65412 | 5.76284 | 15488 ft | 306 kts | 333° |
| 2026-04-25 21:33 | 59.67283 | 5.74323 | 14695 ft | 304 kts | 333° |
| 2026-04-25 21:33 | 59.69174 | 5.72341 | 13909 ft | 312 kts | 333° |
| 2026-04-25 21:33 | 59.71104 | 5.70315 | 13015 ft | 315 kts | 333° |
| 2026-04-25 21:33 | 59.73032 | 5.68293 | 12138 ft | 313 kts | 333° |
| 2026-04-25 21:34 | 59.74949 | 5.66279 | 11287 ft | 311 kts | 333° |
| 2026-04-25 21:34 | 59.76856 | 5.64272 | 10620 ft | 309 kts | 333° |
| 2026-04-25 21:34 | 59.78746 | 5.62280 | 10248 ft | 298 kts | 333° |
| 2026-04-25 21:34 | 59.80450 | 5.60472 | 10232 ft | 259 kts | 333° |
| 2026-04-25 21:35 | 59.81978 | 5.58848 | 10074 ft | 246 kts | 333° |
| 2026-04-25 21:35 | 59.83494 | 5.57246 | 9983 ft | 247 kts | 333° |
| 2026-04-25 21:35 | 59.85008 | 5.55650 | 9552 ft | 252 kts | 333° |
| 2026-04-25 21:35 | 59.86556 | 5.54014 | 9044 ft | 252 kts | 333° |
| 2026-04-25 21:36 | 59.88104 | 5.52374 | 8582 ft | 252 kts | 333° |
| 2026-04-25 21:36 | 59.89645 | 5.50734 | 8127 ft | 252 kts | 333° |
| 2026-04-25 21:36 | 59.91188 | 5.49088 | 7668 ft | 252 kts | 333° |
| 2026-04-25 21:36 | 59.92730 | 5.47440 | 7245 ft | 252 kts | 333° |
| 2026-04-25 21:37 | 59.94277 | 5.45791 | 6824 ft | 250 kts | 333° |
| 2026-04-25 21:37 | 59.95299 | 5.44701 | 6490 ft | 252 kts | 334° |
| 2026-04-25 21:37 | 59.97365 | 5.42502 | 5861 ft | 252 kts | 333° |
| 2026-04-25 21:37 | 59.98916 | 5.40845 | 5357 ft | 254 kts | 333° |
| 2026-04-25 21:38 | 60.00457 | 5.39194 | 5015 ft | 250 kts | 333° |
| 2026-04-25 21:38 | 60.01990 | 5.37551 | 4551 ft | 250 kts | 333° |
| 2026-04-25 21:38 | 60.03494 | 5.35938 | 4223 ft | 246 kts | 333° |
| 2026-04-25 21:38 | 60.04966 | 5.34355 | 4080 ft | 235 kts | 333° |
| 2026-04-25 21:39 | 60.06371 | 5.32841 | 3984 ft | 223 kts | 333° |
| 2026-04-25 21:39 | 60.07695 | 5.31412 | 3871 ft | 210 kts | 334° |
| 2026-04-25 21:39 | 60.08943 | 5.30063 | 3776 ft | 199 kts | 334° |
| 2026-04-25 21:39 | 60.10131 | 5.28778 | 3727 ft | 188 kts | 334° |
| 2026-04-25 21:40 | 60.10916 | 5.28089 | 3658 ft | 179 kts | 346° |
| 2026-04-25 21:40 | 60.12510 | 5.27448 | 3428 ft | 175 kts | 351° |
| 2026-04-25 21:40 | 60.13711 | 5.27038 | 3191 ft | 174 kts | 351° |
| 2026-04-25 21:40 | 60.14873 | 5.26647 | 2938 ft | 166 kts | 352° |
| 2026-04-25 21:41 | 60.16003 | 5.26271 | 2719 ft | 163 kts | 351° |
| 2026-04-25 21:41 | 60.17114 | 5.25900 | 2493 ft | 161 kts | 351° |
| 2026-04-25 21:41 | 60.18214 | 5.25534 | 2264 ft | 159 kts | 351° |
| 2026-04-25 21:41 | 60.19307 | 5.25171 | 2048 ft | 159 kts | 351° |
| 2026-04-25 21:42 | 60.20391 | 5.24812 | 1821 ft | 158 kts | 351° |
| 2026-04-25 21:42 | 60.21434 | 5.24460 | 1587 ft | 146 kts | 351° |
| 2026-04-25 21:42 | 60.22394 | 5.24129 | 1396 ft | 133 kts | 351° |
| 2026-04-25 21:42 | 60.23286 | 5.23839 | 1183 ft | 127 kts | 350° |
| 2026-04-25 21:43 | 60.24137 | 5.23538 | 1025 ft | 124 kts | 350° |
| 2026-04-25 21:43 | 60.24989 | 5.23260 | 835 ft | 125 kts | 351° |
| 2026-04-25 21:43 | 60.25838 | 5.22984 | 669 ft | 122 kts | 349° |
| 2026-04-25 21:43 | 60.26678 | 5.22703 | 517 ft | 122 kts | 350° |
| 2026-04-25 21:44 | 60.27508 | 5.22417 | 335 ft | 123 kts | 350° |
| 2026-04-25 21:44 | 60.28333 | 5.22144 | 175 ft | 118 kts | 350° |
| 2026-04-25 21:44 | 60.29442 | 5.21778 | 153 ft | 38 kts | 350° |
| 2026-04-25 21:45 | 60.29677 | 5.21708 | 146 ft | 23 kts | 15° |
| 2026-04-25 21:45 | 60.29711 | 5.21784 | 146 ft | 20 kts | 67° |
| 2026-04-25 21:45 | 60.29722 | 5.21906 | 149 ft | 0 kts | 80° |
| 2026-04-25 21:46 | 60.29722 | 5.21909 | 149 ft | 1 kts | 80° |
| 2026-04-25 21:46 | 60.29718 | 5.21969 | 149 ft | 6 kts | 116° |
| 2026-04-25 21:46 | 60.29683 | 5.22017 | 150 ft | 10 kts | 158° |
| 2026-04-25 21:47 | 60.29579 | 5.22059 | 154 ft | 16 kts | 172° |
| 2026-04-25 21:47 | 60.29473 | 5.22093 | 157 ft | 15 kts | 171° |
| 2026-04-25 21:47 | 60.29370 | 5.22127 | 161 ft | 15 kts | 171° |
| 2026-04-25 21:47 | 60.29275 | 5.22159 | 166 ft | 13 kts | 170° |
| 2026-04-25 21:48 | 60.29174 | 5.22193 | 171 ft | 15 kts | 171° |
| 2026-04-25 21:48 | 60.29073 | 5.22229 | 175 ft | 14 kts | 169° |
| 2026-04-25 21:48 | 60.28966 | 5.22264 | 172 ft | 12 kts | 170° |
| 2026-04-25 21:48 | 60.28936 | 5.22349 | 174 ft | 6 kts | 122° |
| 2026-04-25 21:49 | 60.28902 | 5.22409 | 175 ft | 7 kts | 134° |
| 2026-04-25 21:49 | 60.28895 | 5.22499 | 175 ft | 5 kts | 86° |
| 2026-04-25 21:49 | 60.28896 | 5.22528 | 175 ft | 2 kts | 84° |
| 2026-04-25 21:49 | 60.28897 | 5.22536 | 175 ft | 0 kts | 84° |